createdAt,value
2022-11-15T00:00:12.730Z,99623.94
2022-11-15T00:01:18.784Z,99622.28
2022-11-15T00:02:20.614Z,99619.69
2022-11-15T00:03:24.462Z,99625.75
2022-11-15T00:04:26.140Z,99616.19
2022-11-15T00:05:27.752Z,99617.16
2022-11-15T00:06:29.655Z,99610.34
2022-11-15T00:07:54.717Z,99618.91
2022-11-15T00:08:53.182Z,99619.78
2022-11-15T00:09:54.742Z,99616.34
2022-11-15T00:10:57.828Z,99622.47
2022-11-15T00:11:59.558Z,99610.34
2022-11-15T00:13:01.231Z,99615.44
2022-11-15T00:14:05.422Z,99611.19
2022-11-15T00:15:07.884Z,99611.28
2022-11-15T00:16:10.127Z,99618.25
2022-11-15T00:17:12.096Z,99614.78
2022-11-15T00:18:15.489Z,99613.09
2022-11-15T00:19:17.329Z,99614.06
2022-11-15T00:20:19.021Z,99610.63
2022-11-15T00:21:20.766Z,99611.56
2022-11-15T00:22:22.621Z,99615.91
2022-11-15T00:23:24.275Z,99612.44
2022-11-15T00:24:25.885Z,99614.25
2022-11-15T00:25:28.324Z,99608.19
2022-11-15T00:26:29.978Z,99609.91
2022-11-15T00:27:31.549Z,99607.19
2022-11-15T00:28:33.317Z,99607.22
2022-11-15T00:29:35.195Z,99609.81
2022-11-15T00:30:36.967Z,99612.44
2022-11-15T00:31:38.731Z,99597.09
2022-11-15T00:32:40.578Z,99605.56
2022-11-15T00:33:44.465Z,99609.00
2022-11-15T00:34:46.055Z,99606.41
2022-11-15T00:35:47.653Z,99605.41
2022-11-15T00:36:49.426Z,99607.13
2022-11-15T00:37:53.210Z,99570.41
2022-11-15T00:38:54.869Z,99600.22
2022-11-15T00:39:56.557Z,99599.31
2022-11-15T00:40:58.169Z,99601.06
2022-11-15T00:41:59.749Z,99599.31
2022-11-15T00:43:01.521Z,99598.47
2022-11-15T00:44:03.345Z,99585.59
2022-11-15T00:45:05.419Z,99591.28
2022-11-15T00:46:07.101Z,99591.25
2022-11-15T00:47:08.831Z,99586.91
2022-11-15T00:48:10.994Z,99592.97
2022-11-15T00:49:12.596Z,99587.69
2022-11-15T00:50:15.487Z,99585.09
2022-11-15T00:51:17.348Z,99582.53
2022-11-15T00:52:19.266Z,99576.41
2022-11-15T00:53:21.315Z,99578.06
2022-11-15T00:54:23.038Z,99575.47
2022-11-15T00:55:24.623Z,99575.47
2022-11-15T00:56:26.269Z,99548.19
2022-11-15T00:57:27.967Z,99575.47
2022-11-15T00:58:29.597Z,99573.75
2022-11-15T00:59:31.294Z,99570.44
2022-11-15T01:00:33.012Z,99570.25
2022-11-15T01:01:34.893Z,99569.31
2022-11-15T01:02:36.659Z,99559.94
2022-11-15T01:03:39.779Z,99571.91
2022-11-15T01:04:41.337Z,99569.22
2022-11-15T01:05:43.163Z,99577.09
2022-11-15T01:06:44.894Z,99566.63
2022-11-15T01:07:46.670Z,99554.47
2022-11-15T01:08:48.365Z,99555.31
2022-11-15T01:09:50.071Z,99564.81
2022-11-15T01:10:51.952Z,99563.91
2022-11-15T01:11:53.644Z,99556.09
2022-11-15T01:12:55.503Z,99557.09
2022-11-15T01:13:57.242Z,99556.09
2022-11-15T01:14:59.272Z,99554.34
2022-11-15T01:16:08.336Z,99556.19
2022-11-15T01:17:10.133Z,99559.50
2022-11-15T01:18:11.808Z,99563.72
2022-11-15T01:19:13.538Z,99558.44
2022-11-15T01:20:15.308Z,99559.38
2022-11-15T01:21:19.744Z,99561.06
2022-11-15T01:22:21.536Z,99562.78
2022-11-15T01:23:23.179Z,99558.34
2022-11-15T01:24:24.872Z,99573.06
2022-11-15T01:25:26.515Z,99561.66
2022-11-15T01:26:28.401Z,99558.16
2022-11-15T01:27:30.066Z,99556.34
2022-11-15T01:28:33.730Z,99558.06
2022-11-15T01:29:35.432Z,99564.06
2022-11-15T01:30:37.452Z,99569.13
2022-11-15T01:31:39.262Z,99562.19
2022-11-15T01:32:40.967Z,99566.31
2022-11-15T01:33:43.083Z,99553.22
2022-11-15T01:34:44.646Z,99558.31
2022-11-15T01:35:46.236Z,99560.94
2022-11-15T01:36:48.080Z,99552.19
2022-11-15T01:37:50.190Z,99551.09
2022-11-15T01:38:56.419Z,99553.63
2022-11-15T01:39:58.331Z,99543.94
2022-11-15T01:41:00.119Z,99544.00
2022-11-15T01:42:01.838Z,99547.38
2022-11-15T01:43:23.683Z,99545.59
2022-11-15T01:44:42.482Z,99541.09
2022-11-15T01:45:46.223Z,99541.09
2022-11-15T01:46:49.162Z,99535.28
2022-11-15T01:47:55.292Z,99541.03
2022-11-15T01:49:01.660Z,99540.22
2022-11-15T01:50:13.109Z,99539.34
2022-11-15T01:51:17.956Z,99537.59
2022-11-15T01:52:22.142Z,99532.38
2022-11-15T01:53:26.027Z,99533.16
2022-11-15T01:54:28.280Z,99527.16
2022-11-15T01:55:30.029Z,99528.84
2022-11-15T01:56:37.361Z,99531.50
2022-11-15T01:57:41.142Z,99523.69
2022-11-15T01:58:44.400Z,99518.47
2022-11-15T01:59:46.820Z,99520.31
2022-11-15T02:00:50.847Z,99525.56
2022-11-15T02:01:52.978Z,99523.81
2022-11-15T02:02:54.596Z,99521.19
2022-11-15T02:04:09.022Z,99521.94
2022-11-15T02:05:10.921Z,99524.56
2022-11-15T02:06:12.615Z,99520.22
2022-11-15T02:07:21.163Z,99524.59
2022-11-15T02:08:22.807Z,99515.97
2022-11-15T02:09:24.821Z,99521.19
2022-11-15T02:10:26.532Z,99526.47
2022-11-15T02:11:30.995Z,99522.25
2022-11-15T02:12:32.814Z,99518.84
2022-11-15T02:13:34.722Z,99519.75
2022-11-15T02:14:39.475Z,99520.66
2022-11-15T02:15:51.106Z,99515.31
2022-11-15T02:17:03.171Z,99513.44
2022-11-15T02:18:19.951Z,99503.88
2022-11-15T02:19:31.065Z,99503.88
2022-11-15T02:21:11.766Z,99500.34
2022-11-15T02:22:48.992Z,99484.03
2022-11-15T02:24:13.536Z,99486.41
2022-11-15T02:25:35.375Z,99483.84
2022-11-15T02:27:00.193Z,99476.97
2022-11-15T02:28:37.430Z,99477.13
2022-11-15T02:29:45.317Z,99486.78
2022-11-15T02:31:22.279Z,99465.31
2022-11-15T02:32:46.646Z,99481.56
2022-11-15T02:34:01.181Z,99477.13
2022-11-15T02:35:09.337Z,99478.09
2022-11-15T02:36:17.524Z,99472.09
2022-11-15T02:37:19.205Z,99482.47
2022-11-15T02:38:47.351Z,99476.19
2022-11-15T02:40:16.865Z,99480.53
2022-11-15T02:41:25.262Z,99485.81
2022-11-15T02:42:49.005Z,99476.09
2022-11-15T02:44:16.166Z,99475.13
2022-11-15T02:45:24.184Z,99482.03
2022-11-15T02:46:56.478Z,99474.16
2022-11-15T02:48:00.759Z,99469.63
2022-11-15T02:49:02.573Z,99471.34
2022-11-15T02:50:11.397Z,99478.19
2022-11-15T02:51:14.246Z,99476.38
2022-11-15T02:52:21.358Z,99475.31
2022-11-15T02:53:27.072Z,99455.44
2022-11-15T02:54:34.240Z,99466.06
2022-11-15T02:55:41.537Z,99474.03
2022-11-15T02:56:46.677Z,99472.22
2022-11-15T02:57:55.884Z,99465.16
2022-11-15T02:59:14.817Z,99457.50
2022-11-15T03:00:21.536Z,99471.91
2022-11-15T03:01:49.258Z,99471.69
2022-11-15T03:03:02.779Z,99472.41
2022-11-15T03:04:43.617Z,99465.41
2022-11-15T03:05:53.065Z,99458.38
2022-11-15T03:07:21.237Z,99459.88
2022-11-15T03:08:40.847Z,99453.66
2022-11-15T03:10:17.918Z,99456.00
2022-11-15T03:11:22.189Z,99447.19
2022-11-15T03:12:42.489Z,99449.78
2022-11-15T03:13:54.801Z,99445.44
2022-11-15T03:15:02.250Z,99446.13
2022-11-15T03:16:26.030Z,99451.44
2022-11-15T03:17:37.298Z,99451.56
2022-11-15T03:18:44.074Z,99447.38
2022-11-15T03:19:54.095Z,99447.59
2022-11-15T03:20:58.790Z,99445.19
2022-11-15T03:22:04.018Z,99441.06
2022-11-15T03:23:09.434Z,99445.72
2022-11-15T03:24:13.406Z,99444.28
2022-11-15T03:25:21.944Z,99442.84
2022-11-15T03:26:26.074Z,99445.81
2022-11-15T03:27:35.685Z,99443.41
2022-11-15T03:28:42.942Z,99434.06
2022-11-15T03:29:51.137Z,99439.41
2022-11-15T03:30:55.918Z,99447.19
2022-11-15T03:32:06.655Z,99443.78
2022-11-15T03:33:09.393Z,99432.94
2022-11-15T03:34:35.350Z,99439.78
2022-11-15T03:35:42.042Z,99437.53
2022-11-15T03:36:44.889Z,99440.25
2022-11-15T03:37:59.503Z,99438.81
2022-11-15T03:39:05.247Z,99435.59
2022-11-15T03:40:07.758Z,99441.78
2022-11-15T03:41:18.850Z,99437.66
2022-11-15T03:42:39.705Z,99442.16
2022-11-15T03:44:04.049Z,99431.06
2022-11-15T03:45:24.796Z,99433.78
2022-11-15T03:46:33.071Z,99439.25
2022-11-15T03:47:43.487Z,99444.38
2022-11-15T03:48:50.572Z,99445.81
2022-11-15T03:49:56.887Z,99436.94
2022-11-15T03:51:00.389Z,99447.22
2022-11-15T03:52:05.130Z,99443.81
2022-11-15T03:53:06.932Z,99444.63
2022-11-15T03:54:09.261Z,99450.69
2022-11-15T03:55:16.060Z,99449.84
2022-11-15T03:56:17.660Z,99447.22
2022-11-15T03:57:19.280Z,99450.56
2022-11-15T03:58:21.325Z,99452.34
2022-11-15T03:59:23.567Z,99448.03
2022-11-15T04:00:25.586Z,99455.78
2022-11-15T04:01:27.681Z,99452.44
2022-11-15T04:02:29.857Z,99450.66
2022-11-15T04:03:31.974Z,99449.72
2022-11-15T04:04:33.670Z,99453.19
2022-11-15T04:05:35.268Z,99450.66
2022-11-15T04:06:36.916Z,99446.34
2022-11-15T04:07:38.642Z,99447.22
2022-11-15T04:08:40.655Z,99451.66
2022-11-15T04:10:01.192Z,99458.50
2022-11-15T04:11:02.727Z,99454.16
2022-11-15T04:12:05.040Z,99452.34
2022-11-15T04:13:06.783Z,99453.91
2022-11-15T04:14:08.371Z,99457.44
2022-11-15T04:15:14.302Z,99459.09
2022-11-15T04:16:16.039Z,99465.19
2022-11-15T04:17:17.620Z,99455.59
2022-11-15T04:18:19.292Z,99451.25
2022-11-15T04:19:39.534Z,99454.75
2022-11-15T04:20:59.772Z,99467.00
2022-11-15T04:22:30.537Z,99456.66
2022-11-15T04:24:10.852Z,99459.09
2022-11-15T04:25:12.514Z,99455.72
2022-11-15T04:26:19.171Z,99451.56
2022-11-15T04:27:20.869Z,99450.47
2022-11-15T04:28:23.334Z,99450.56
2022-11-15T04:29:36.857Z,99447.91
2022-11-15T04:30:38.700Z,99447.06
2022-11-15T04:31:40.303Z,99438.41
2022-11-15T04:32:41.961Z,99444.47
2022-11-15T04:33:43.615Z,99445.19
2022-11-15T04:34:45.245Z,99438.22
2022-11-15T04:36:06.883Z,99428.81
2022-11-15T04:37:14.422Z,99436.31
2022-11-15T04:38:16.096Z,99440.66
2022-11-15T04:39:17.920Z,99436.31
2022-11-15T04:40:19.603Z,99434.63
2022-11-15T04:41:21.262Z,99439.84
2022-11-15T04:42:22.975Z,99438.13
2022-11-15T04:43:24.663Z,99438.22
2022-11-15T04:44:26.427Z,99436.47
2022-11-15T04:45:28.074Z,99443.47
2022-11-15T04:46:29.750Z,99433.97
2022-11-15T04:47:31.309Z,99434.03
2022-11-15T04:48:33.085Z,99430.63
2022-11-15T04:49:34.712Z,99432.34
2022-11-15T04:50:36.531Z,99424.69
2022-11-15T04:51:38.217Z,99431.75
2022-11-15T04:52:47.299Z,99426.63
2022-11-15T04:54:04.217Z,99424.97
2022-11-15T04:55:08.310Z,99423.97
2022-11-15T04:56:13.098Z,99431.66
2022-11-15T04:57:15.380Z,99431.66
2022-11-15T04:58:19.064Z,99432.44
2022-11-15T04:59:31.022Z,99431.47
2022-11-15T05:00:36.481Z,99429.72
2022-11-15T05:01:43.609Z,99430.44
2022-11-15T05:03:05.015Z,99427.03
2022-11-15T05:04:21.619Z,99415.13
2022-11-15T05:05:24.908Z,99421.91
2022-11-15T05:06:26.561Z,99422.88
2022-11-15T05:07:28.226Z,99426.53
2022-11-15T05:08:29.862Z,99426.63
2022-11-15T05:09:31.489Z,99426.72
2022-11-15T05:10:33.134Z,99422.47
2022-11-15T05:11:35.065Z,99424.16
2022-11-15T05:12:37.019Z,99419.97
2022-11-15T05:13:38.640Z,99433.09
2022-11-15T05:14:40.316Z,99419.00
2022-11-15T05:15:41.904Z,99433.94
2022-11-15T05:16:44.084Z,99421.25
2022-11-15T05:17:45.629Z,99439.41
2022-11-15T05:18:49.133Z,99418.28
2022-11-15T05:20:00.702Z,99375.72
2022-11-15T05:21:06.663Z,99383.09
2022-11-15T05:22:08.272Z,99424.81
2022-11-15T05:23:12.455Z,99411.59
2022-11-15T05:24:14.297Z,99449.53
2022-11-15T05:25:16.030Z,99380.00
2022-11-15T05:26:19.120Z,99400.56
2022-11-15T05:27:20.733Z,99434.88
2022-11-15T05:28:22.236Z,99369.06
2022-11-15T05:29:26.764Z,99440.22
2022-11-15T05:30:30.954Z,99419.88
2022-11-15T05:31:32.926Z,99369.13
2022-11-15T05:32:37.283Z,99432.47
2022-11-15T05:33:43.997Z,99390.59
2022-11-15T05:34:46.514Z,99369.06
2022-11-15T05:35:55.832Z,99409.03
2022-11-15T05:36:57.999Z,99435.69
2022-11-15T05:38:01.962Z,99401.47
2022-11-15T05:39:05.648Z,99371.63
2022-11-15T05:40:11.601Z,99402.88
2022-11-15T05:41:21.143Z,99441.56
2022-11-15T05:42:22.902Z,99357.31
2022-11-15T05:43:26.981Z,99451.19
2022-11-15T05:44:29.743Z,99386.13
2022-11-15T05:45:35.826Z,99414.91
2022-11-15T05:46:44.219Z,99368.47
2022-11-15T05:47:47.068Z,99410.38
2022-11-15T05:48:51.163Z,99420.44
2022-11-15T05:49:54.977Z,99402.41
2022-11-15T05:51:05.011Z,99333.22
2022-11-15T05:52:13.090Z,99295.09
2022-11-15T05:53:18.761Z,99375.97
2022-11-15T05:54:23.764Z,99390.56
2022-11-15T05:55:25.313Z,99382.56
2022-11-15T05:56:26.972Z,99395.13
2022-11-15T05:57:28.513Z,99382.31
2022-11-15T05:58:32.803Z,99431.94
2022-11-15T05:59:36.548Z,99362.44
2022-11-15T06:00:38.321Z,99386.19
2022-11-15T06:01:41.281Z,99367.22
2022-11-15T06:02:45.845Z,99434.69
2022-11-15T06:03:49.764Z,99428.28
2022-11-15T06:04:51.396Z,99423.69
2022-11-15T06:05:52.951Z,99400.06
2022-11-15T06:06:54.859Z,99317.47
2022-11-15T06:08:02.432Z,99412.44
2022-11-15T06:09:04.323Z,99399.72
2022-11-15T06:10:06.535Z,99418.44
2022-11-15T06:11:08.767Z,99366.09
2022-11-15T06:12:10.388Z,99406.22
2022-11-15T06:13:11.997Z,99363.09
2022-11-15T06:14:13.753Z,99352.53
2022-11-15T06:15:15.451Z,99407.31
2022-11-15T06:16:17.059Z,99375.19
2022-11-15T06:17:18.685Z,99375.81
2022-11-15T06:18:20.283Z,99399.38
2022-11-15T06:19:21.953Z,99384.19
2022-11-15T06:20:23.794Z,99409.59
2022-11-15T06:21:25.328Z,99416.06
2022-11-15T06:22:26.890Z,99412.00
2022-11-15T06:23:36.236Z,99403.56
2022-11-15T06:24:39.037Z,99382.41
2022-11-15T06:25:47.108Z,99418.22
2022-11-15T06:26:51.437Z,99403.16
2022-11-15T06:27:54.449Z,99374.28
2022-11-15T06:28:59.845Z,99384.31
2022-11-15T06:30:01.442Z,99341.94
2022-11-15T06:31:12.094Z,99337.03
2022-11-15T06:32:14.298Z,99332.38
2022-11-15T06:33:17.430Z,99382.19
2022-11-15T06:34:19.040Z,99414.25
2022-11-15T06:35:23.522Z,99396.28
2022-11-15T06:36:27.547Z,99316.03
2022-11-15T06:37:29.070Z,99369.00
2022-11-15T06:38:31.310Z,99327.66
2022-11-15T06:39:32.844Z,99335.34
2022-11-15T06:40:39.552Z,99360.00
2022-11-15T06:41:41.100Z,99397.38
2022-11-15T06:42:42.704Z,99409.66
2022-11-15T06:43:46.827Z,99354.91
2022-11-15T06:44:48.420Z,99383.19
2022-11-15T06:45:51.315Z,99400.69
2022-11-15T06:46:55.454Z,99393.91
2022-11-15T06:47:57.702Z,99370.50
2022-11-15T06:48:59.243Z,99396.03
2022-11-15T06:50:01.420Z,99396.22
2022-11-15T06:51:06.571Z,99353.09
2022-11-15T06:52:08.517Z,99330.00
2022-11-15T06:53:10.378Z,99363.94
2022-11-15T06:54:11.931Z,99402.31
2022-11-15T06:55:15.514Z,99388.41
2022-11-15T06:56:17.148Z,99364.47
2022-11-15T06:57:19.004Z,99326.56
2022-11-15T06:58:22.286Z,99373.38
2022-11-15T06:59:23.960Z,99325.47
2022-11-15T07:00:28.629Z,99351.97
2022-11-15T07:01:37.318Z,99430.88
2022-11-15T07:02:38.925Z,99413.38
2022-11-15T07:03:46.193Z,99349.22
2022-11-15T07:04:47.769Z,99408.09
2022-11-15T07:06:05.546Z,99374.19
2022-11-15T07:07:08.467Z,99370.63
2022-11-15T07:08:11.292Z,99352.22
2022-11-15T07:09:12.989Z,99383.50
2022-11-15T07:10:14.726Z,99420.56
2022-11-15T07:11:16.388Z,99421.50
2022-11-15T07:12:17.962Z,99338.03
2022-11-15T07:13:19.581Z,99376.03
2022-11-15T07:14:21.181Z,99392.66
2022-11-15T07:15:32.884Z,99409.28
2022-11-15T07:16:43.378Z,99361.06
2022-11-15T07:17:49.937Z,99431.91
2022-11-15T07:18:56.139Z,99415.63
2022-11-15T07:20:02.611Z,99401.31
2022-11-15T07:21:06.423Z,99414.09
2022-11-15T07:22:13.600Z,99421.72
2022-11-15T07:23:21.444Z,99422.78
2022-11-15T07:24:23.322Z,99403.81
2022-11-15T07:25:25.135Z,99396.03
2022-11-15T07:26:26.688Z,99384.25
2022-11-15T07:27:28.268Z,99362.81
2022-11-15T07:28:36.480Z,99379.28
2022-11-15T07:29:41.439Z,99364.25
2022-11-15T07:30:45.414Z,99391.88
2022-11-15T07:31:47.340Z,99394.81
2022-11-15T07:32:54.084Z,99382.16
2022-11-15T07:33:55.737Z,99379.94
2022-11-15T07:34:57.463Z,99316.72
2022-11-15T07:36:03.108Z,99393.03
2022-11-15T07:37:04.643Z,99416.66
2022-11-15T07:38:11.905Z,99402.75
2022-11-15T07:39:16.128Z,99351.47
2022-11-15T07:40:19.820Z,99386.00
2022-11-15T07:41:21.543Z,99411.16
2022-11-15T07:42:41.774Z,99418.41
2022-11-15T07:43:46.515Z,99386.34
2022-11-15T07:44:53.992Z,99387.09
2022-11-15T07:45:59.041Z,99356.53
2022-11-15T07:47:04.101Z,99374.97
2022-11-15T07:48:06.268Z,99407.00
2022-11-15T07:49:08.125Z,99415.13
2022-11-15T07:50:10.461Z,99287.03
2022-11-15T07:51:14.578Z,99362.91
2022-11-15T07:52:22.921Z,99376.03
2022-11-15T07:53:24.580Z,99468.75
2022-11-15T07:54:26.364Z,99346.56
2022-11-15T07:55:34.757Z,99405.75
2022-11-15T07:56:36.687Z,99360.31
2022-11-15T07:57:38.317Z,99384.22
2022-11-15T07:58:39.887Z,99329.16
2022-11-15T07:59:41.552Z,99429.84
2022-11-15T08:00:43.178Z,99417.56
2022-11-15T08:01:44.797Z,99397.84
2022-11-15T08:02:46.723Z,99401.22
2022-11-15T08:03:48.440Z,99394.94
2022-11-15T08:04:50.174Z,99398.41
2022-11-15T08:05:52.728Z,99408.75
2022-11-15T08:06:54.381Z,99404.06
2022-11-15T08:08:00.043Z,99394.81
2022-11-15T08:09:02.003Z,99352.47
2022-11-15T08:10:09.745Z,99371.53
2022-11-15T08:11:11.624Z,99274.31
2022-11-15T08:12:22.395Z,99364.19
2022-11-15T08:13:24.183Z,99402.31
2022-11-15T08:14:28.271Z,99385.94
2022-11-15T08:15:38.555Z,99301.09
2022-11-15T08:16:49.233Z,99364.41
2022-11-15T08:17:57.796Z,99373.94
2022-11-15T08:18:59.892Z,99414.16
2022-11-15T08:20:06.650Z,99368.22
2022-11-15T08:21:14.242Z,99402.03
2022-11-15T08:22:20.073Z,99418.34
2022-11-15T08:23:21.817Z,99307.00
2022-11-15T08:24:23.540Z,99365.78
2022-11-15T08:25:27.315Z,99382.72
2022-11-15T08:26:38.995Z,99367.19
2022-11-15T08:27:43.535Z,99329.56
2022-11-15T08:28:45.377Z,99403.06
2022-11-15T08:29:51.265Z,99416.56
2022-11-15T08:30:56.894Z,99336.25
2022-11-15T08:32:04.275Z,99374.56
2022-11-15T08:33:12.272Z,99365.88
2022-11-15T08:34:14.488Z,99322.50
2022-11-15T08:35:16.743Z,99289.97
2022-11-15T08:36:21.266Z,99332.25
2022-11-15T08:37:25.935Z,99370.78
2022-11-15T08:38:30.379Z,99374.88
2022-11-15T08:39:32.670Z,99359.38
2022-11-15T08:40:34.602Z,99319.06
2022-11-15T08:41:38.614Z,99336.59
2022-11-15T08:42:44.871Z,99317.88
2022-11-15T08:43:46.868Z,99284.06
2022-11-15T08:44:48.598Z,99366.31
2022-11-15T08:45:53.260Z,99402.63
2022-11-15T08:46:55.605Z,99309.09
2022-11-15T08:48:00.096Z,99366.22
2022-11-15T08:49:04.463Z,99307.66
2022-11-15T08:50:10.065Z,99347.38
2022-11-15T08:51:14.735Z,99252.00
2022-11-15T08:52:16.714Z,99311.84
2022-11-15T08:53:21.677Z,99327.53
2022-11-15T08:54:23.276Z,99321.66
2022-11-15T08:55:25.230Z,99358.50
2022-11-15T08:56:30.787Z,99361.59
2022-11-15T08:57:32.503Z,99332.69
2022-11-15T08:58:37.264Z,99327.09
2022-11-15T08:59:39.054Z,99344.53
2022-11-15T09:00:43.148Z,99329.50
2022-11-15T09:01:50.337Z,99298.63
2022-11-15T09:02:54.397Z,99327.91
2022-11-15T09:03:56.965Z,99376.97
2022-11-15T09:05:05.862Z,99340.84
2022-11-15T09:06:13.799Z,99290.84
2022-11-15T09:07:25.982Z,99286.78
2022-11-15T09:08:47.032Z,99320.56
2022-11-15T09:09:49.465Z,99368.84
2022-11-15T09:10:52.207Z,99258.38
2022-11-15T09:12:02.478Z,99233.06
2022-11-15T09:13:07.289Z,99272.22
2022-11-15T09:14:12.861Z,99369.38
2022-11-15T09:15:16.321Z,99220.69
2022-11-15T09:16:22.508Z,99335.63
2022-11-15T09:17:26.899Z,99352.41
2022-11-15T09:18:29.190Z,99265.59
2022-11-15T09:19:42.589Z,99374.81
2022-11-15T09:20:48.772Z,99342.03
2022-11-15T09:21:57.225Z,99346.50
2022-11-15T09:23:05.225Z,99346.13
2022-11-15T09:24:13.986Z,99357.75
2022-11-15T09:25:17.361Z,99304.41
2022-11-15T09:26:22.043Z,99383.00
2022-11-15T09:27:24.273Z,99350.47
2022-11-15T09:28:26.497Z,99287.03
2022-11-15T09:29:28.475Z,99341.03
2022-11-15T09:30:30.778Z,99268.13
2022-11-15T09:31:41.537Z,99358.88
2022-11-15T09:32:49.330Z,99356.97
2022-11-15T09:33:52.804Z,99346.75
2022-11-15T09:35:00.339Z,99321.00
2022-11-15T09:36:09.004Z,99373.38
2022-11-15T09:37:14.833Z,99359.16
2022-11-15T09:38:20.334Z,99374.56
2022-11-15T09:39:24.980Z,99337.38
2022-11-15T09:40:35.203Z,99302.66
2022-11-15T09:41:59.686Z,99293.94
2022-11-15T09:43:50.545Z,99352.66
2022-11-15T09:45:19.620Z,99364.09
2022-11-15T09:47:00.378Z,99308.31
2022-11-15T09:48:20.586Z,99297.25
2022-11-15T09:49:23.343Z,99359.38
2022-11-15T09:50:51.811Z,99348.63
2022-11-15T09:52:01.605Z,99312.59
2022-11-15T09:53:05.923Z,99297.38
2022-11-15T09:54:51.628Z,99366.22
2022-11-15T09:56:05.432Z,99375.84
2022-11-15T09:57:18.234Z,99352.50
2022-11-15T09:59:01.108Z,99352.00
2022-11-15T10:00:44.224Z,99360.41
2022-11-15T10:02:07.384Z,99361.13
2022-11-15T10:03:29.030Z,99353.78
2022-11-15T10:04:33.518Z,99392.16
2022-11-15T10:06:02.810Z,99378.22
2022-11-15T10:07:14.594Z,99320.72
2022-11-15T10:08:35.645Z,99358.91
2022-11-15T10:09:48.264Z,99373.19
2022-11-15T10:11:22.818Z,99329.94
2022-11-15T10:12:20.070Z,99338.50
2022-11-15T10:13:31.766Z,99380.38
2022-11-15T10:14:36.169Z,99341.47
2022-11-15T10:15:46.487Z,99331.00
2022-11-15T10:17:32.244Z,99356.03
2022-11-15T10:19:10.225Z,99329.53
2022-11-15T10:20:13.019Z,99323.28
2022-11-15T10:21:21.995Z,99347.00
2022-11-15T10:22:30.030Z,99334.97
2022-11-15T10:23:39.290Z,99328.16
2022-11-15T10:24:45.794Z,99328.97
2022-11-15T10:25:47.904Z,99357.13
2022-11-15T10:26:50.223Z,99355.28
2022-11-15T10:28:18.323Z,99318.72
2022-11-15T10:29:27.114Z,99317.91
2022-11-15T10:30:43.671Z,99329.41
2022-11-15T10:31:45.642Z,99310.66
2022-11-15T10:32:51.575Z,99312.56
2022-11-15T10:34:35.287Z,99304.13
2022-11-15T10:35:41.301Z,99240.00
2022-11-15T10:36:53.323Z,99301.13
2022-11-15T10:38:13.255Z,99354.78
2022-11-15T10:39:20.555Z,99324.69
2022-11-15T10:40:24.669Z,99304.91
2022-11-15T10:41:33.044Z,99347.00
2022-11-15T10:43:08.902Z,99343.97
2022-11-15T10:44:13.466Z,99346.66
2022-11-15T10:45:39.554Z,99340.81
2022-11-15T10:46:47.734Z,99338.63
2022-11-15T10:47:49.536Z,99305.03
2022-11-15T10:48:51.203Z,99321.59
2022-11-15T10:50:01.605Z,99336.19
2022-11-15T10:51:25.039Z,99259.19
2022-11-15T10:52:31.298Z,99242.38
2022-11-15T10:53:48.435Z,99293.97
2022-11-15T10:54:55.272Z,99305.28
2022-11-15T10:56:01.397Z,99240.91
2022-11-15T10:57:12.048Z,99270.56
2022-11-15T10:58:37.210Z,99282.78
2022-11-15T10:59:42.693Z,99292.88
2022-11-15T11:00:47.246Z,99271.66
2022-11-15T11:01:49.642Z,99271.44
2022-11-15T11:02:57.070Z,99287.81
2022-11-15T11:04:08.593Z,99288.66
2022-11-15T11:05:28.829Z,99285.56
2022-11-15T11:06:31.189Z,99238.63
2022-11-15T11:07:35.797Z,99259.09
2022-11-15T11:08:38.307Z,99275.47
2022-11-15T11:09:43.672Z,99282.56
2022-11-15T11:11:01.934Z,99290.88
2022-11-15T11:12:15.805Z,99259.25
2022-11-15T11:13:24.575Z,99264.44
2022-11-15T11:14:32.060Z,99227.66
2022-11-15T11:15:33.805Z,99268.09
2022-11-15T11:16:43.069Z,99260.00
2022-11-15T11:18:10.369Z,99251.28
2022-11-15T11:19:24.030Z,99255.56
2022-11-15T11:20:41.986Z,99208.56
2022-11-15T11:22:06.823Z,99248.09
2022-11-15T11:23:30.091Z,99245.09
2022-11-15T11:24:43.819Z,99244.34
2022-11-15T11:26:02.715Z,99229.59
2022-11-15T11:27:24.623Z,99240.44
2022-11-15T11:28:48.124Z,99231.03
2022-11-15T11:29:49.791Z,99225.34
2022-11-15T11:31:03.390Z,99225.91
2022-11-15T11:32:23.015Z,99225.91
2022-11-15T11:33:52.126Z,99221.88
2022-11-15T11:35:07.710Z,99223.38
2022-11-15T11:36:38.287Z,99209.19
2022-11-15T11:37:42.584Z,99218.41
2022-11-15T11:38:50.572Z,99217.56
2022-11-15T11:40:10.425Z,99158.47
2022-11-15T11:41:25.232Z,99220.28
2022-11-15T11:42:49.787Z,99211.75
2022-11-15T11:43:57.785Z,99223.56
2022-11-15T11:45:11.902Z,99195.53
2022-11-15T11:46:16.212Z,99208.94
2022-11-15T11:47:38.153Z,99212.91
2022-11-15T11:48:49.380Z,99213.34
2022-11-15T11:49:53.809Z,99209.59
2022-11-15T11:51:05.704Z,99177.81
2022-11-15T11:52:10.160Z,99210.72
2022-11-15T11:53:49.666Z,99195.63
2022-11-15T11:55:15.425Z,99208.66
2022-11-15T11:56:41.729Z,99227.97
2022-11-15T11:57:57.531Z,99198.34
2022-11-15T11:59:12.013Z,99194.13
2022-11-15T12:00:13.900Z,99211.28
2022-11-15T12:01:37.040Z,99197.03
2022-11-15T12:02:42.731Z,99205.19
2022-11-15T12:03:46.830Z,99181.41
2022-11-15T12:04:56.073Z,99147.13
2022-11-15T12:06:01.367Z,99176.91
2022-11-15T12:07:21.272Z,99206.22
2022-11-15T12:08:41.624Z,99201.34
2022-11-15T12:10:08.284Z,99197.34
2022-11-15T12:11:21.386Z,99199.22
2022-11-15T12:12:25.775Z,99187.03
2022-11-15T12:13:34.418Z,99189.34
2022-11-15T12:15:01.236Z,99192.53
2022-11-15T12:16:13.656Z,99188.59
2022-11-15T12:17:18.659Z,99198.19
2022-11-15T12:18:20.427Z,99178.31
2022-11-15T12:19:22.185Z,99193.94
2022-11-15T12:20:26.490Z,99181.75
2022-11-15T12:21:47.863Z,99179.13
2022-11-15T12:23:05.235Z,99168.06
2022-11-15T12:24:33.996Z,99139.88
2022-11-15T12:25:48.080Z,99164.69
2022-11-15T12:27:05.218Z,99144.66
2022-11-15T12:28:53.159Z,99127.97
2022-11-15T12:30:11.607Z,99136.22
2022-11-15T12:31:31.459Z,99116.91
2022-11-15T12:32:40.038Z,99053.16
2022-11-15T12:33:45.487Z,99054.81
2022-11-15T12:34:50.203Z,99085.03
2022-11-15T12:36:01.214Z,99141.63
2022-11-15T12:37:03.135Z,99052.44
2022-11-15T12:38:15.687Z,99067.97
2022-11-15T12:39:20.670Z,99109.47
2022-11-15T12:40:30.082Z,99134.56
2022-11-15T12:41:41.067Z,99148.22
2022-11-15T12:42:57.369Z,99109.84
2022-11-15T12:44:02.448Z,99127.41
2022-11-15T12:45:38.501Z,99117.28
2022-11-15T12:46:44.536Z,99083.69
2022-11-15T12:47:46.260Z,99103.81
2022-11-15T12:48:54.421Z,99106.19
2022-11-15T12:49:59.169Z,99112.75
2022-11-15T12:51:02.003Z,99041.53
2022-11-15T12:52:06.785Z,99084.97
2022-11-15T12:53:31.401Z,99076.28
2022-11-15T12:54:36.249Z,99104.41
2022-11-15T12:55:37.888Z,99085.19
2022-11-15T12:56:41.241Z,99106.25
2022-11-15T12:57:49.741Z,99124.84
2022-11-15T12:58:57.746Z,99085.94
2022-11-15T13:00:28.256Z,99048.31
2022-11-15T13:01:47.463Z,99093.91
2022-11-15T13:02:49.688Z,99053.53
2022-11-15T13:04:15.695Z,99081.84
2022-11-15T13:05:20.436Z,99078.75
2022-11-15T13:06:48.423Z,99088.75
2022-11-15T13:07:50.284Z,99054.56
2022-11-15T13:08:52.272Z,99089.41
2022-11-15T13:09:58.515Z,99057.28
2022-11-15T13:11:39.998Z,99017.22
2022-11-15T13:12:50.137Z,99066.88
2022-11-15T13:13:54.747Z,99088.22
2022-11-15T13:15:42.281Z,99069.84